sensor_id;sensor_type;location;lat;lon;timestamp;pressure;altitude;pressure_sealevel;temperature;humidity
36260;BME280;22296;50.824;5.644;2023-03-04T00:02:19;101719.22;;;11.68;57.26
36260;BME280;22296;50.824;5.644;2023-03-04T00:04:45;101723.13;;;11.67;57.30
36260;BME280;22296;50.824;5.644;2023-03-04T00:07:12;101719.78;;;11.65;57.19
36260;BME280;22296;50.824;5.644;2023-03-04T00:09:43;101715.63;;;11.63;57.30
36260;BME280;22296;50.824;5.644;2023-03-04T00:12:11;101716.47;;;11.58;57.46
36260;BME280;22296;50.824;5.644;2023-03-04T00:14:39;101717.56;;;11.57;57.43
36260;BME280;22296;50.824;5.644;2023-03-04T00:17:05;101714.25;;;11.55;57.48
36260;BME280;22296;50.824;5.644;2023-03-04T00:19:33;101715.38;;;11.59;57.36
36260;BME280;22296;50.824;5.644;2023-03-04T00:22:01;101719.78;;;11.60;57.38
36260;BME280;22296;50.824;5.644;2023-03-04T00:24:29;101710.94;;;11.58;57.37
36260;BME280;22296;50.824;5.644;2023-03-04T00:26:56;101713.44;;;11.55;57.30
36260;BME280;22296;50.824;5.644;2023-03-04T00:29:23;101710.13;;;11.53;57.63
36260;BME280;22296;50.824;5.644;2023-03-04T00:31:50;101709.84;;;11.49;57.64
36260;BME280;22296;50.824;5.644;2023-03-04T00:34:16;101705.97;;;11.50;57.23
36260;BME280;22296;50.824;5.644;2023-03-04T00:36:43;101716.19;;;11.50;57.51
36260;BME280;22296;50.824;5.644;2023-03-04T00:39:11;101699.34;;;11.46;57.47
36260;BME280;22296;50.824;5.644;2023-03-04T00:41:37;101715.66;;;11.48;57.51
36260;BME280;22296;50.824;5.644;2023-03-04T00:44:05;101705.97;;;11.45;57.44
36260;BME280;22296;50.824;5.644;2023-03-04T00:46:32;101705.97;;;11.40;57.85
36260;BME280;22296;50.824;5.644;2023-03-04T00:48:59;101710.66;;;11.39;57.58
36260;BME280;22296;50.824;5.644;2023-03-04T00:51:26;101704.31;;;11.39;57.73
36260;BME280;22296;50.824;5.644;2023-03-04T00:53:52;101700.44;;;11.35;57.81
36260;BME280;22296;50.824;5.644;2023-03-04T00:56:19;101696.00;;;11.34;57.94
36260;BME280;22296;50.824;5.644;2023-03-04T00:58:46;101696.00;;;11.34;57.66
36260;BME280;22296;50.824;5.644;2023-03-04T01:01:13;101708.19;;;11.33;57.76
36260;BME280;22296;50.824;5.644;2023-03-04T01:03:39;101710.13;;;11.32;57.65
36260;BME280;22296;50.824;5.644;2023-03-04T01:06:09;101713.69;;;11.28;57.92
36260;BME280;22296;50.824;5.644;2023-03-04T01:08:38;101710.66;;;11.29;57.92
36260;BME280;22296;50.824;5.644;2023-03-04T01:11:05;101709.81;;;11.29;57.92
36260;BME280;22296;50.824;5.644;2023-03-04T01:13:32;101702.63;;;11.28;57.91
36260;BME280;22296;50.824;5.644;2023-03-04T01:15:59;101710.38;;;11.26;57.99
36260;BME280;22296;50.824;5.644;2023-03-04T01:18:26;101696.03;;;11.24;57.89
36260;BME280;22296;50.824;5.644;2023-03-04T01:20:52;101703.75;;;11.22;58.15
36260;BME280;22296;50.824;5.644;2023-03-04T01:23:20;101702.34;;;11.19;58.34
36260;BME280;22296;50.824;5.644;2023-03-04T01:25:47;101695.19;;;11.18;58.11
36260;BME280;22296;50.824;5.644;2023-03-04T01:28:14;101700.41;;;11.20;58.16
36260;BME280;22296;50.824;5.644;2023-03-04T01:30:40;101689.09;;;11.16;58.33
36260;BME280;22296;50.824;5.644;2023-03-04T01:33:07;101693.25;;;11.19;57.94
36260;BME280;22296;50.824;5.644;2023-03-04T01:35:34;101692.69;;;11.17;58.16
36260;BME280;22296;50.824;5.644;2023-03-04T01:38:01;101689.94;;;11.17;57.98
36260;BME280;22296;50.824;5.644;2023-03-04T01:40:29;101679.44;;;11.14;58.14
36260;BME280;22296;50.824;5.644;2023-03-04T01:42:56;101675.03;;;11.13;58.04
36260;BME280;22296;50.824;5.644;2023-03-04T01:45:23;101684.94;;;11.14;58.00
36260;BME280;22296;50.824;5.644;2023-03-04T01:47:51;101676.97;;;11.12;58.04
36260;BME280;22296;50.824;5.644;2023-03-04T01:50:31;101673.66;;;11.10;58.22
36260;BME280;22296;50.824;5.644;2023-03-04T01:52:58;101672.53;;;11.11;58.27
36260;BME280;22296;50.824;5.644;2023-03-04T01:55:25;101658.44;;;11.08;58.35
36260;BME280;22296;50.824;5.644;2023-03-04T01:57:53;101665.63;;;11.09;58.20
36260;BME280;22296;50.824;5.644;2023-03-04T02:00:30;101664.78;;;11.08;58.27
36260;BME280;22296;50.824;5.644;2023-03-04T02:03:21;101658.44;;;11.08;58.50
36260;BME280;22296;50.824;5.644;2023-03-04T02:05:50;101657.63;;;11.07;58.36
36260;BME280;22296;50.824;5.644;2023-03-04T02:08:20;101650.16;;;11.03;58.35
36260;BME280;22296;50.824;5.644;2023-03-04T02:10:47;101649.63;;;11.01;58.71
36260;BME280;22296;50.824;5.644;2023-03-04T02:13:15;101655.69;;;11.03;58.39
36260;BME280;22296;50.824;5.644;2023-03-04T02:15:43;101646.03;;;11.00;58.55
36260;BME280;22296;50.824;5.644;2023-03-04T02:18:20;101649.06;;;10.99;58.47
36260;BME280;22296;50.824;5.644;2023-03-04T02:21:14;101641.03;;;10.97;58.49
36260;BME280;22296;50.824;5.644;2023-03-04T02:23:51;101630.84;;;10.98;58.41
36260;BME280;22296;50.824;5.644;2023-03-04T02:26:29;101625.31;;;10.93;58.58
36260;BME280;22296;50.824;5.644;2023-03-04T02:28:58;101627.53;;;10.96;58.47
36260;BME280;22296;50.824;5.644;2023-03-04T02:34:06;101631.38;;;10.95;58.61
36260;BME280;22296;50.824;5.644;2023-03-04T02:36:35;101625.88;;;10.95;58.64
36260;BME280;22296;50.824;5.644;2023-03-04T02:41:51;101623.66;;;10.92;58.84
36260;BME280;22296;50.824;5.644;2023-03-04T02:44:20;101626.41;;;10.92;58.68
36260;BME280;22296;50.824;5.644;2023-03-04T02:46:49;101620.59;;;10.88;58.68
36260;BME280;22296;50.824;5.644;2023-03-04T02:49:17;101613.72;;;10.85;58.93
36260;BME280;22296;50.824;5.644;2023-03-04T02:51:45;101618.13;;;10.86;58.81
36260;BME280;22296;50.824;5.644;2023-03-04T02:54:16;101619.22;;;10.85;59.05
36260;BME280;22296;50.824;5.644;2023-03-04T02:56:51;101619.81;;;10.88;58.76
36260;BME280;22296;50.824;5.644;2023-03-04T02:59:21;101614.28;;;10.88;58.74
36260;BME280;22296;50.824;5.644;2023-03-04T03:01:49;101618.13;;;10.86;58.50
36260;BME280;22296;50.824;5.644;2023-03-04T03:04:17;101618.69;;;10.83;58.75
36260;BME280;22296;50.824;5.644;2023-03-04T03:06:44;101623.09;;;10.84;58.96
36260;BME280;22296;50.824;5.644;2023-03-04T03:09:11;101615.38;;;10.81;58.91
36260;BME280;22296;50.824;5.644;2023-03-04T03:11:38;101614.53;;;10.81;58.90
36260;BME280;22296;50.824;5.644;2023-03-04T03:14:05;101612.31;;;10.78;58.99
36260;BME280;22296;50.824;5.644;2023-03-04T03:16:51;101598.25;;;10.79;58.98
36260;BME280;22296;50.824;5.644;2023-03-04T03:19:18;101602.66;;;10.80;58.79
36260;BME280;22296;50.824;5.644;2023-03-04T03:21:45;101597.69;;;10.77;59.00
36260;BME280;22296;50.824;5.644;2023-03-04T03:24:12;101597.69;;;10.77;58.97
36260;BME280;22296;50.824;5.644;2023-03-04T03:26:39;101593.56;;;10.75;59.12
36260;BME280;22296;50.824;5.644;2023-03-04T03:29:06;101596.03;;;10.76;59.06
36260;BME280;22296;50.824;5.644;2023-03-04T03:31:33;101598.25;;;10.74;59.15
36260;BME280;22296;50.824;5.644;2023-03-04T03:34:00;101601.56;;;10.76;59.03
36260;BME280;22296;50.824;5.644;2023-03-04T03:36:27;101583.91;;;10.77;59.07
36260;BME280;22296;50.824;5.644;2023-03-04T03:38:53;101592.72;;;10.74;59.11
36260;BME280;22296;50.824;5.644;2023-03-04T03:41:20;101591.06;;;10.73;59.23
36260;BME280;22296;50.824;5.644;2023-03-04T03:43:47;101594.09;;;10.72;59.14
36260;BME280;22296;50.824;5.644;2023-03-04T03:46:14;101591.59;;;10.70;59.00
36260;BME280;22296;50.824;5.644;2023-03-04T03:48:41;101594.38;;;10.70;59.19
36260;BME280;22296;50.824;5.644;2023-03-04T03:51:07;101588.59;;;10.72;58.68
36260;BME280;22296;50.824;5.644;2023-03-04T03:53:34;101586.09;;;10.70;59.13
36260;BME280;22296;50.824;5.644;2023-03-04T03:56:01;101592.72;;;10.69;59.38
36260;BME280;22296;50.824;5.644;2023-03-04T03:58:28;101591.91;;;10.69;59.20
36260;BME280;22296;50.824;5.644;2023-03-04T04:00:55;101599.63;;;10.67;59.27
36260;BME280;22296;50.824;5.644;2023-03-04T04:03:24;101595.47;;;10.64;59.19
36260;BME280;22296;50.824;5.644;2023-03-04T04:05:51;101595.19;;;10.66;59.21
36260;BME280;22296;50.824;5.644;2023-03-04T04:08:18;101598.78;;;10.66;59.53
36260;BME280;22296;50.824;5.644;2023-03-04T04:10:45;101595.19;;;10.66;59.29
36260;BME280;22296;50.824;5.644;2023-03-04T04:13:11;101595.47;;;10.64;59.38
36260;BME280;22296;50.824;5.644;2023-03-04T04:15:39;101594.91;;;10.62;59.25
36260;BME280;22296;50.824;5.644;2023-03-04T04:18:06;101588.31;;;10.63;59.47
36260;BME280;22296;50.824;5.644;2023-03-04T04:20:33;101589.38;;;10.62;59.37
36260;BME280;22296;50.824;5.644;2023-03-04T04:23:00;101589.38;;;10.62;59.57
36260;BME280;22296;50.824;5.644;2023-03-04T04:25:26;101591.59;;;10.60;59.84
36260;BME280;22296;50.824;5.644;2023-03-04T04:27:53;101583.88;;;10.62;59.37
36260;BME280;22296;50.824;5.644;2023-03-04T04:30:20;101580.56;;;10.60;59.40
36260;BME280;22296;50.824;5.644;2023-03-04T04:32:46;101584.97;;;10.56;59.30
36260;BME280;22296;50.824;5.644;2023-03-04T04:35:13;101589.13;;;10.59;59.41
36260;BME280;22296;50.824;5.644;2023-03-04T04:37:40;101587.47;;;10.58;59.31
36260;BME280;22296;50.824;5.644;2023-03-04T04:40:07;101588.00;;;10.55;59.51
36260;BME280;22296;50.824;5.644;2023-03-04T04:42:34;101584.69;;;10.53;59.35
36260;BME280;22296;50.824;5.644;2023-03-04T04:45:01;101586.34;;;10.54;59.40
36260;BME280;22296;50.824;5.644;2023-03-04T04:47:28;101586.34;;;10.54;59.50
36260;BME280;22296;50.824;5.644;2023-03-04T04:49:55;101587.16;;;10.54;59.55
36260;BME280;22296;50.824;5.644;2023-03-04T04:52:22;101596.28;;;10.55;59.28
36260;BME280;22296;50.824;5.644;2023-03-04T04:54:49;101595.44;;;10.54;59.64
36260;BME280;22296;50.824;5.644;2023-03-04T04:57:15;101596.53;;;10.53;59.46
36260;BME280;22296;50.824;5.644;2023-03-04T04:59:42;101596.53;;;10.53;59.58
36260;BME280;22296;50.824;5.644;2023-03-04T05:02:08;101604.25;;;10.51;59.60
36260;BME280;22296;50.824;5.644;2023-03-04T05:04:35;101602.88;;;10.49;59.60
36260;BME280;22296;50.824;5.644;2023-03-04T05:07:02;101602.63;;;10.50;59.62
36260;BME280;22296;50.824;5.644;2023-03-04T05:09:29;101605.09;;;10.52;59.36
36260;BME280;22296;50.824;5.644;2023-03-04T05:11:55;101599.03;;;10.50;59.53
36260;BME280;22296;50.824;5.644;2023-03-04T05:14:22;101602.34;;;10.52;59.56
36260;BME280;22296;50.824;5.644;2023-03-04T05:16:49;101600.97;;;10.49;59.72
36260;BME280;22296;50.824;5.644;2023-03-04T05:19:19;101613.38;;;10.47;59.78
36260;BME280;22296;50.824;5.644;2023-03-04T05:21:46;101607.00;;;10.46;59.70
36260;BME280;22296;50.824;5.644;2023-03-04T05:24:13;101615.00;;;10.48;59.78
36260;BME280;22296;50.824;5.644;2023-03-04T05:26:40;101608.94;;;10.46;59.84
36260;BME280;22296;50.824;5.644;2023-03-04T05:29:07;101605.34;;;10.45;59.67
36260;BME280;22296;50.824;5.644;2023-03-04T05:31:33;101613.38;;;10.47;59.62
36260;BME280;22296;50.824;5.644;2023-03-04T05:34:00;101604.50;;;10.45;59.65
36260;BME280;22296;50.824;5.644;2023-03-04T05:36:27;101607.56;;;10.43;59.68
36260;BME280;22296;50.824;5.644;2023-03-04T05:38:54;101603.72;;;10.44;59.47
36260;BME280;22296;50.824;5.644;2023-03-04T05:41:21;101602.03;;;10.43;59.54
36260;BME280;22296;50.824;5.644;2023-03-04T05:43:48;101602.03;;;10.43;59.67
36260;BME280;22296;50.824;5.644;2023-03-04T05:46:17;101600.38;;;10.42;59.83
36260;BME280;22296;50.824;5.644;2023-03-04T05:48:44;101611.41;;;10.42;59.72
36260;BME280;22296;50.824;5.644;2023-03-04T05:51:11;101602.59;;;10.40;59.79
36260;BME280;22296;50.824;5.644;2023-03-04T05:53:38;101608.09;;;10.40;59.75
36260;BME280;22296;50.824;5.644;2023-03-04T05:56:14;101611.94;;;10.39;59.59
36260;BME280;22296;50.824;5.644;2023-03-04T05:58:42;101610.03;;;10.40;59.85
36260;BME280;22296;50.824;5.644;2023-03-04T06:01:09;101606.97;;;10.36;59.76
36260;BME280;22296;50.824;5.644;2023-03-04T06:03:36;101611.94;;;10.39;59.81
36260;BME280;22296;50.824;5.644;2023-03-04T06:06:04;101605.34;;;10.35;59.84
36260;BME280;22296;50.824;5.644;2023-03-04T06:08:31;101610.84;;;10.35;59.82
36260;BME280;22296;50.824;5.644;2023-03-04T06:10:57;101609.72;;;10.36;60.06
36260;BME280;22296;50.824;5.644;2023-03-04T06:13:24;101609.19;;;10.39;60.00
36260;BME280;22296;50.824;5.644;2023-03-04T06:15:55;101619.97;;;10.41;59.72
36260;BME280;22296;50.824;5.644;2023-03-04T06:18:24;101620.25;;;10.44;59.83
36260;BME280;22296;50.824;5.644;2023-03-04T06:20:55;101624.63;;;10.40;59.89
36260;BME280;22296;50.824;5.644;2023-03-04T06:23:22;101621.34;;;10.38;59.83
36260;BME280;22296;50.824;5.644;2023-03-04T06:25:53;101634.53;;;10.36;59.87
36260;BME280;22296;50.824;5.644;2023-03-04T06:28:20;101621.88;;;10.35;60.05
36260;BME280;22296;50.824;5.644;2023-03-04T06:30:46;101624.88;;;10.34;60.08
36260;BME280;22296;50.824;5.644;2023-03-04T06:33:13;101619.91;;;10.30;60.09
36260;BME280;22296;50.824;5.644;2023-03-04T06:35:40;101625.41;;;10.30;59.71
36260;BME280;22296;50.824;5.644;2023-03-04T06:38:07;101627.38;;;10.30;60.04
36260;BME280;22296;50.824;5.644;2023-03-04T06:40:34;101625.97;;;10.27;59.93
36260;BME280;22296;50.824;5.644;2023-03-04T06:43:00;101632.06;;;10.29;59.97
36260;BME280;22296;50.824;5.644;2023-03-04T06:45:27;101633.16;;;10.28;60.07
36260;BME280;22296;50.824;5.644;2023-03-04T06:47:54;101630.66;;;10.27;60.15
36260;BME280;22296;50.824;5.644;2023-03-04T06:50:20;101637.81;;;10.28;59.99
36260;BME280;22296;50.824;5.644;2023-03-04T06:52:47;101639.75;;;10.27;60.02
36260;BME280;22296;50.824;5.644;2023-03-04T06:55:14;101645.53;;;10.26;60.09
36260;BME280;22296;50.824;5.644;2023-03-04T06:57:41;101646.06;;;10.23;60.21
36260;BME280;22296;50.824;5.644;2023-03-04T07:00:08;101649.94;;;10.22;60.20
36260;BME280;22296;50.824;5.644;2023-03-04T07:02:35;101647.75;;;10.24;59.96
36260;BME280;22296;50.824;5.644;2023-03-04T07:05:02;101642.78;;;10.21;60.17
36260;BME280;22296;50.824;5.644;2023-03-04T07:07:29;101652.69;;;10.22;60.16
36260;BME280;22296;50.824;5.644;2023-03-04T07:09:55;101645.25;;;10.22;60.09
36260;BME280;22296;50.824;5.644;2023-03-04T07:12:22;101656.56;;;10.21;60.06
36260;BME280;22296;50.824;5.644;2023-03-04T07:14:49;101655.44;;;10.22;60.03
36260;BME280;22296;50.824;5.644;2023-03-04T07:17:16;101661.50;;;10.19;60.07
36260;BME280;22296;50.824;5.644;2023-03-04T07:19:43;101657.63;;;10.20;60.22
36260;BME280;22296;50.824;5.644;2023-03-04T07:22:10;101666.19;;;10.18;60.17
36260;BME280;22296;50.824;5.644;2023-03-04T07:24:37;101660.94;;;10.17;60.02
36260;BME280;22296;50.824;5.644;2023-03-04T07:27:03;101658.19;;;10.17;60.07
36260;BME280;22296;50.824;5.644;2023-03-04T07:29:30;101660.94;;;10.17;60.15
36260;BME280;22296;50.824;5.644;2023-03-04T07:31:57;101673.03;;;10.16;60.10
36260;BME280;22296;50.824;5.644;2023-03-04T07:34:24;101664.78;;;10.16;60.12
36260;BME280;22296;50.824;5.644;2023-03-04T07:36:50;101668.38;;;10.16;59.88
36260;BME280;22296;50.824;5.644;2023-03-04T07:39:17;101665.91;;;10.15;59.76
36260;BME280;22296;50.824;5.644;2023-03-04T07:41:44;101669.75;;;10.14;60.12
36260;BME280;22296;50.824;5.644;2023-03-04T07:44:11;101669.75;;;10.14;59.97
36260;BME280;22296;50.824;5.644;2023-03-04T07:46:39;101671.06;;;10.11;60.14
36260;BME280;22296;50.824;5.644;2023-03-04T07:49:06;101671.91;;;10.12;59.95
36260;BME280;22296;50.824;5.644;2023-03-04T07:51:33;101681.25;;;10.11;59.83
36260;BME280;22296;50.824;5.644;2023-03-04T07:54:01;101679.63;;;10.10;60.14
36260;BME280;22296;50.824;5.644;2023-03-04T07:56:30;101674.66;;;10.12;60.02
36260;BME280;22296;50.824;5.644;2023-03-04T07:58:57;101681.25;;;10.11;60.02
36260;BME280;22296;50.824;5.644;2023-03-04T08:01:27;101675.75;;;10.11;59.97
36260;BME280;22296;50.824;5.644;2023-03-04T08:03:55;101672.44;;;10.09;59.93
36260;BME280;22296;50.824;5.644;2023-03-04T08:06:22;101680.44;;;10.10;60.04
36260;BME280;22296;50.824;5.644;2023-03-04T08:08:55;101686.47;;;10.07;59.86
36260;BME280;22296;50.824;5.644;2023-03-04T08:11:22;101686.47;;;10.07;59.94
36260;BME280;22296;50.824;5.644;2023-03-04T08:13:49;101685.09;;;10.05;60.17
36260;BME280;22296;50.824;5.644;2023-03-04T08:16:17;101687.84;;;10.05;60.20
36260;BME280;22296;50.824;5.644;2023-03-04T08:18:46;101687.03;;;10.04;60.07
36260;BME280;22296;50.824;5.644;2023-03-04T08:21:15;101694.19;;;10.05;60.13
36260;BME280;22296;50.824;5.644;2023-03-04T08:23:44;101692.81;;;10.03;59.95
36260;BME280;22296;50.824;5.644;2023-03-04T08:26:16;101696.38;;;10.03;59.99
36260;BME280;22296;50.824;5.644;2023-03-04T08:28:43;101693.88;;;10.02;60.20
36260;BME280;22296;50.824;5.644;2023-03-04T08:31:14;101691.72;;;10.04;60.05
36260;BME280;22296;50.824;5.644;2023-03-04T08:33:41;101702.75;;;10.04;59.91
36260;BME280;22296;50.824;5.644;2023-03-04T08:36:09;101692.25;;;10.01;59.95
36260;BME280;22296;50.824;5.644;2023-03-04T08:38:36;101699.41;;;10.02;60.03
36260;BME280;22296;50.824;5.644;2023-03-04T08:41:03;101705.75;;;10.02;59.97
36260;BME280;22296;50.824;5.644;2023-03-04T08:43:31;101704.34;;;10.00;60.05
36260;BME280;22296;50.824;5.644;2023-03-04T08:45:58;101708.78;;;10.01;59.78
36260;BME280;22296;50.824;5.644;2023-03-04T08:48:25;101718.13;;;10.00;59.89
36260;BME280;22296;50.824;5.644;2023-03-04T08:50:52;101718.97;;;10.00;59.74
36260;BME280;22296;50.824;5.644;2023-03-04T08:53:19;101719.22;;;9.99;59.93
36260;BME280;22296;50.824;5.644;2023-03-04T08:55:47;101712.06;;;9.98;60.06
36260;BME280;22296;50.824;5.644;2023-03-04T08:58:14;101721.16;;;9.98;59.88
36260;BME280;22296;50.824;5.644;2023-03-04T09:00:44;101704.63;;;9.98;59.88
36260;BME280;22296;50.824;5.644;2023-03-04T09:03:15;101718.66;;;9.97;59.92
36260;BME280;22296;50.824;5.644;2023-03-04T09:05:43;101713.16;;;9.97;59.87
36260;BME280;22296;50.824;5.644;2023-03-04T09:08:10;101713.16;;;9.97;60.08
36260;BME280;22296;50.824;5.644;2023-03-04T09:10:37;101717.81;;;9.96;59.95
36260;BME280;22296;50.824;5.644;2023-03-04T09:13:04;101706.56;;;9.98;59.84
36260;BME280;22296;50.824;5.644;2023-03-04T09:15:32;101714.81;;;9.98;59.55
36260;BME280;22296;50.824;5.644;2023-03-04T09:18:03;101709.88;;;10.05;59.46
36260;BME280;22296;50.824;5.644;2023-03-04T09:20:31;101705.50;;;10.09;59.37
36260;BME280;22296;50.824;5.644;2023-03-04T09:22:58;101712.19;;;10.13;59.54
36260;BME280;22296;50.824;5.644;2023-03-04T09:25:25;101705.59;;;10.19;59.21
36260;BME280;22296;50.824;5.644;2023-03-04T09:27:51;101710.63;;;10.32;59.03
36260;BME280;22296;50.824;5.644;2023-03-04T09:30:19;101703.00;;;10.44;58.61
36260;BME280;22296;50.824;5.644;2023-03-04T09:32:46;101699.72;;;10.52;58.57
36260;BME280;22296;50.824;5.644;2023-03-04T09:35:13;101701.94;;;10.65;58.33
36260;BME280;22296;50.824;5.644;2023-03-04T09:37:40;101698.41;;;10.75;57.98
36260;BME280;22296;50.824;5.644;2023-03-04T09:40:10;101703.69;;;10.92;57.71
36260;BME280;22296;50.824;5.644;2023-03-04T09:42:45;101702.59;;;11.03;57.27
36260;BME280;22296;50.824;5.644;2023-03-04T09:45:17;101709.25;;;11.12;57.15
36260;BME280;22296;50.824;5.644;2023-03-04T09:47:47;101701.00;;;11.22;56.85
36260;BME280;22296;50.824;5.644;2023-03-04T09:50:18;101694.34;;;11.28;56.74
36260;BME280;22296;50.824;5.644;2023-03-04T09:53:24;101701.53;;;11.34;56.54
36260;BME280;22296;50.824;5.644;2023-03-04T09:55:54;101695.50;;;11.47;56.38
36260;BME280;22296;50.824;5.644;2023-03-04T09:58:38;101699.34;;;11.51;56.44
36260;BME280;22296;50.824;5.644;2023-03-04T10:01:22;101696.03;;;11.64;56.09
36260;BME280;22296;50.824;5.644;2023-03-04T10:03:58;101694.66;;;11.62;56.08
36260;BME280;22296;50.824;5.644;2023-03-04T10:06:30;101697.13;;;11.68;56.13
36260;BME280;22296;50.824;5.644;2023-03-04T10:09:01;101690.53;;;11.74;56.04
36260;BME280;22296;50.824;5.644;2023-03-04T10:11:43;101686.38;;;11.82;55.78
36260;BME280;22296;50.824;5.644;2023-03-04T10:17:06;101682.78;;;11.86;55.67
36260;BME280;22296;50.824;5.644;2023-03-04T10:25:25;101679.97;;;12.02;55.49
36260;BME280;22296;50.824;5.644;2023-03-04T10:27:56;101674.44;;;12.02;55.51
36260;BME280;22296;50.824;5.644;2023-03-04T10:33:16;101670.00;;;12.06;55.48
36260;BME280;22296;50.824;5.644;2023-03-04T10:35:48;101667.81;;;12.08;55.45
36260;BME280;22296;50.824;5.644;2023-03-04T10:38:18;101661.16;;;12.14;55.08
36260;BME280;22296;50.824;5.644;2023-03-04T10:40:46;101668.31;;;12.15;55.19
36260;BME280;22296;50.824;5.644;2023-03-04T10:43:17;101668.88;;;12.17;55.17
36260;BME280;22296;50.824;5.644;2023-03-04T10:45:45;101667.22;;;12.16;55.26
36260;BME280;22296;50.824;5.644;2023-03-04T10:48:21;101670.25;;;12.19;55.32
36260;BME280;22296;50.824;5.644;2023-03-04T10:50:48;101673.56;;;12.21;55.12
36260;BME280;22296;50.824;5.644;2023-03-04T10:53:38;101671.06;;;12.25;54.95
36260;BME280;22296;50.824;5.644;2023-03-04T10:56:38;101667.47;;;12.24;55.24
36260;BME280;22296;50.824;5.644;2023-03-04T11:01:53;101660.81;;;12.30;54.97
36260;BME280;22296;50.824;5.644;2023-03-04T11:04:23;101662.75;;;12.30;54.95
36260;BME280;22296;50.824;5.644;2023-03-04T11:06:51;101654.44;;;12.30;55.19
36260;BME280;22296;50.824;5.644;2023-03-04T11:09:23;101656.69;;;12.28;55.08
36260;BME280;22296;50.824;5.644;2023-03-04T11:11:53;101655.25;;;12.35;55.04
36260;BME280;22296;50.824;5.644;2023-03-04T11:16:52;101650.53;;;12.41;54.88
36260;BME280;22296;50.824;5.644;2023-03-04T11:19:22;101657.97;;;12.45;54.89
36260;BME280;22296;50.824;5.644;2023-03-04T11:21:51;101652.72;;;12.44;54.91
36260;BME280;22296;50.824;5.644;2023-03-04T11:24:24;101657.69;;;12.47;54.71
36260;BME280;22296;50.824;5.644;2023-03-04T11:27:04;101656.56;;;12.53;54.61
36260;BME280;22296;50.824;5.644;2023-03-04T11:29:37;101651.84;;;12.53;54.60
36260;BME280;22296;50.824;5.644;2023-03-04T11:32:17;101641.06;;;12.52;54.78
36260;BME280;22296;50.824;5.644;2023-03-04T11:43:02;101642.69;;;12.58;54.65
36260;BME280;22296;50.824;5.644;2023-03-04T11:48:51;101629.66;;;12.64;54.64
36260;BME280;22296;50.824;5.644;2023-03-04T11:54:05;101629.34;;;12.70;54.39
36260;BME280;22296;50.824;5.644;2023-03-04T11:56:39;101628.25;;;12.71;54.30
36260;BME280;22296;50.824;5.644;2023-03-04T12:02:37;101613.84;;;12.69;54.40
36260;BME280;22296;50.824;5.644;2023-03-04T12:05:50;101614.94;;;12.73;54.36
36260;BME280;22296;50.824;5.644;2023-03-04T12:11:15;101603.56;;;12.75;54.40
36260;BME280;22296;50.824;5.644;2023-03-04T12:21:59;101591.66;;;12.79;54.49
36260;BME280;22296;50.824;5.644;2023-03-04T12:24:55;101583.88;;;12.81;54.58
36260;BME280;22296;50.824;5.644;2023-03-04T12:27:34;101576.09;;;12.83;54.25
36260;BME280;22296;50.824;5.644;2023-03-04T12:30:33;101574.94;;;12.89;54.30
36260;BME280;22296;50.824;5.644;2023-03-04T12:36:19;101565.53;;;12.90;54.29
36260;BME280;22296;50.824;5.644;2023-03-04T12:38:55;101570.56;;;12.88;54.46
36260;BME280;22296;50.824;5.644;2023-03-04T12:41:59;101564.44;;;12.91;54.32
36260;BME280;22296;50.824;5.644;2023-03-04T12:44:23;101563.31;;;12.92;54.33
36260;BME280;22296;50.824;5.644;2023-03-04T12:49:49;101557.94;;;13.11;54.45
36260;BME280;22296;50.824;5.644;2023-03-04T12:55:06;101557.25;;;13.24;54.42
36260;BME280;22296;50.824;5.644;2023-03-04T12:57:34;101551.38;;;13.31;54.19
36260;BME280;22296;50.824;5.644;2023-03-04T13:00:16;101544.84;;;13.45;53.66
36260;BME280;22296;50.824;5.644;2023-03-04T13:08:39;101540.34;;;13.54;53.31
36260;BME280;22296;50.824;5.644;2023-03-04T13:18:58;101537.06;;;13.47;53.51
36260;BME280;22296;50.824;5.644;2023-03-04T13:21:28;101532.88;;;13.50;53.35
36260;BME280;22296;50.824;5.644;2023-03-04T13:23:59;101526.81;;;13.48;53.51
36260;BME280;22296;50.824;5.644;2023-03-04T13:26:32;101529.00;;;13.51;53.25
36260;BME280;22296;50.824;5.644;2023-03-04T13:32:00;101526.81;;;13.48;53.42
36260;BME280;22296;50.824;5.644;2023-03-04T13:34:49;101520.13;;;13.49;53.28
36260;BME280;22296;50.824;5.644;2023-03-04T13:37:33;101515.72;;;13.48;53.42
36260;BME280;22296;50.824;5.644;2023-03-04T13:42:52;101511.81;;;13.49;53.33
36260;BME280;22296;50.824;5.644;2023-03-04T13:45:37;101514.06;;;13.47;53.46
36260;BME280;22296;50.824;5.644;2023-03-04T13:48:27;101515.41;;;13.49;53.41
36260;BME280;22296;50.824;5.644;2023-03-04T13:50:56;101505.16;;;13.50;53.35
36260;BME280;22296;50.824;5.644;2023-03-04T13:53:38;101506.91;;;13.46;53.60
36260;BME280;22296;50.824;5.644;2023-03-04T13:56:10;101507.66;;;13.51;53.15
36260;BME280;22296;50.824;5.644;2023-03-04T13:58:40;101514.06;;;13.47;53.48
36260;BME280;22296;50.824;5.644;2023-03-04T14:01:26;101499.88;;;13.53;53.30
36260;BME280;22296;50.824;5.644;2023-03-04T14:03:54;101498.97;;;13.58;53.17
36260;BME280;22296;50.824;5.644;2023-03-04T14:06:29;101501.56;;;13.49;53.31
36260;BME280;22296;50.824;5.644;2023-03-04T14:08:56;101494.00;;;13.55;53.16
36260;BME280;22296;50.824;5.644;2023-03-04T14:11:32;101491.25;;;13.55;53.27
36260;BME280;22296;50.824;5.644;2023-03-04T14:14:04;101480.22;;;13.50;53.22
36260;BME280;22296;50.824;5.644;2023-03-04T14:16:40;101481.88;;;13.51;53.42
36260;BME280;22296;50.824;5.644;2023-03-04T14:19:30;101474.34;;;13.56;53.13
36260;BME280;22296;50.824;5.644;2023-03-04T14:21:59;101478.47;;;13.59;52.96
36260;BME280;22296;50.824;5.644;2023-03-04T14:24:26;101477.97;;;13.52;53.37